Time;durP1;ratioP1;P1;durP2;ratioP2;P2;SDS_P1;SDS_P2;PMS_P1;PMS_P2;Temp;Humidity;BMP_temperature;BMP_pressure;BME280_temperature;BME280_humidity;BME280_pressure;Samples;Min_cycle;Max_cycle;Signal;HPM_P1;HPM_P2
2024/03/29 00:01:39;;;;;;;;;;;13.20;62.40;;;;;;5107260;27;19999;-75
2024/03/29 00:04:05;;;;;;;;;;;13.20;62.50;;;;;;5106436;27;20752;-76
2024/03/29 00:06:31;;;;;;;;;;;13.20;62.40;;;;;;5103401;28;20119;-75
2024/03/29 00:08:56;;;;;;;;;;;13.20;62.60;;;;;;5102284;27;19996;-76
2024/03/29 00:11:22;;;;;;;;;;;13.10;63.60;;;;;;5106910;27;20510;-75
2024/03/29 00:13:47;;;;;;;;;;;13.20;64.10;;;;;;5104794;27;20481;-75
2024/03/29 00:16:13;;;;;;;;;;;13.20;63.40;;;;;;5104096;27;20760;-75
2024/03/29 00:18:38;;;;;;;;;;;13.20;64.00;;;;;;5105321;27;20009;-75
2024/03/29 00:21:04;;;;;;;;;;;13.20;63.70;;;;;;5104229;28;20380;-76
2024/03/29 00:23:30;;;;;;;;;;;13.00;64.50;;;;;;5104066;28;19991;-77
2024/03/29 00:25:58;;;;;;;;;;;12.90;65.40;;;;;;5099535;27;19993;-76
2024/03/29 00:28:23;;;;;;;;;;;13.00;65.10;;;;;;5100301;27;20013;-76
2024/03/29 00:30:49;;;;;;;;;;;13.00;65.00;;;;;;5103965;27;19989;-76
2024/03/29 00:33:14;;;;;;;;;;;13.00;65.00;;;;;;5106290;27;19996;-76
2024/03/29 00:35:40;;;;;;;;;;;13.00;66.00;;;;;;5105384;27;19989;-75
2024/03/29 00:38:06;;;;;;;;;;;13.00;66.00;;;;;;5105734;27;20582;-75
2024/03/29 00:40:31;;;;;;;;;;;13.10;64.70;;;;;;5099838;28;20003;-75
2024/03/29 00:42:57;;;;;;;;;;;13.20;64.50;;;;;;5103261;28;20621;-75
2024/03/29 00:45:22;;;;;;;;;;;13.10;65.50;;;;;;5103726;27;19996;-75
2024/03/29 00:47:48;;;;;;;;;;;13.20;64.70;;;;;;5105844;27;20087;-75
2024/03/29 00:50:13;;;;;;;;;;;13.10;65.70;;;;;;5108945;27;20039;-75
2024/03/29 00:52:39;;;;;;;;;;;13.00;66.20;;;;;;5102090;28;19989;-75
2024/03/29 00:55:05;;;;;;;;;;;13.00;66.70;;;;;;5104765;27;20467;-75
2024/03/29 00:57:30;;;;;;;;;;;13.00;66.70;;;;;;5104635;27;20101;-75
2024/03/29 00:59:56;;;;;;;;;;;13.00;66.20;;;;;;5102837;27;20424;-75
2024/03/29 01:02:23;;;;;;;;;;;13.00;66.20;;;;;;5105054;27;20366;-76
2024/03/29 01:04:49;;;;;;;;;;;13.00;66.90;;;;;;5103913;27;20363;-76
2024/03/29 01:07:16;;;;;;;;;;;13.00;68.00;;;;;;5101202;27;20020;-76
2024/03/29 01:09:43;;;;;;;;;;;13.00;67.80;;;;;;5106504;27;19989;-76
2024/03/29 01:12:09;;;;;;;;;;;13.00;68.80;;;;;;5103182;28;19992;-76
2024/03/29 01:14:34;;;;;;;;;;;13.00;69.80;;;;;;5104871;27;19989;-76
2024/03/29 01:17:00;;;;;;;;;;;12.90;69.40;;;;;;5086719;28;20401;-76
2024/03/29 01:19:26;;;;;;;;;;;13.00;69.10;;;;;;5087453;27;20020;-76
2024/03/29 01:21:51;;;;;;;;;;;13.00;69.20;;;;;;5099285;28;20068;-75
2024/03/29 01:24:18;;;;;;;;;;;12.80;71.00;;;;;;5098836;27;20613;-76
2024/03/29 01:26:44;;;;;;;;;;;12.80;70.80;;;;;;5098117;27;20041;-75
2024/03/29 01:29:10;;;;;;;;;;;12.70;72.80;;;;;;5104084;27;20035;-75
2024/03/29 01:31:36;;;;;;;;;;;12.60;74.40;;;;;;5103091;28;20004;-73
2024/03/29 01:34:02;;;;;;;;;;;12.40;77.70;;;;;;5102264;28;19993;-75
2024/03/29 01:36:28;;;;;;;;;;;12.40;78.60;;;;;;5102392;28;19992;-75
2024/03/29 01:38:56;;;;;;;;;;;12.30;78.20;;;;;;5102077;28;20136;-76
2024/03/29 01:41:23;;;;;;;;;;;12.40;76.90;;;;;;5102262;27;20005;-75
2024/03/29 01:43:49;;;;;;;;;;;12.50;76.60;;;;;;5101723;28;20092;-75
2024/03/29 01:46:15;;;;;;;;;;;12.30;80.00;;;;;;5102068;28;20443;-75
2024/03/29 01:48:40;;;;;;;;;;;12.00;83.20;;;;;;5101430;28;20041;-75
2024/03/29 01:51:06;;;;;;;;;;;11.90;86.50;;;;;;5102131;28;19999;-76
2024/03/29 01:53:32;;;;;;;;;;;11.90;87.10;;;;;;5101676;28;20359;-75
2024/03/29 01:55:59;;;;;;;;;;;12.00;86.50;;;;;;5101743;28;20000;-76
2024/03/29 01:58:25;;;;;;;;;;;11.90;86.10;;;;;;5102063;28;20009;-76
2024/03/29 02:00:52;;;;;;;;;;;11.90;85.50;;;;;;5101839;28;20015;-76
2024/03/29 02:03:17;;;;;;;;;;;12.00;85.50;;;;;;5103170;28;20045;-76
2024/03/29 02:05:43;;;;;;;;;;;12.00;84.90;;;;;;5101489;28;20438;-76
2024/03/29 02:08:09;;;;;;;;;;;12.00;85.10;;;;;;5101821;28;19996;-75
2024/03/29 02:10:35;;;;;;;;;;;12.00;85.70;;;;;;5084931;28;20016;-76
2024/03/29 02:13:01;;;;;;;;;;;12.00;86.80;;;;;;5105402;28;20451;-76
2024/03/29 02:15:28;;;;;;;;;;;11.90;88.00;;;;;;5101148;28;19996;-76
2024/03/29 02:17:53;;;;;;;;;;;11.80;89.00;;;;;;5104840;27;20123;-75
2024/03/29 02:20:19;;;;;;;;;;;11.80;90.20;;;;;;5105822;28;19999;-75
2024/03/29 02:22:49;;;;;;;;;;;11.60;91.40;;;;;;5105748;28;20038;-76
2024/03/29 02:25:15;;;;;;;;;;;11.50;92.50;;;;;;5101051;27;20038;-76
2024/03/29 02:27:41;;;;;;;;;;;11.40;93.70;;;;;;5106343;27;19992;-76
2024/03/29 02:30:06;;;;;;;;;;;11.50;94.00;;;;;;5108136;27;20574;-76
2024/03/29 02:32:32;;;;;;;;;;;11.40;94.90;;;;;;5105855;27;19985;-76
2024/03/29 02:34:57;;;;;;;;;;;11.40;95.10;;;;;;5105827;27;20435;-76
2024/03/29 02:37:23;;;;;;;;;;;11.40;95.70;;;;;;5108921;27;20073;-76
2024/03/29 02:39:49;;;;;;;;;;;11.40;96.30;;;;;;5104798;28;20030;-76
2024/03/29 02:42:14;;;;;;;;;;;11.50;96.30;;;;;;5105580;28;19992;-76
2024/03/29 02:44:40;;;;;;;;;;;11.50;96.30;;;;;;5107231;27;19995;-77
2024/03/29 02:47:05;;;;;;;;;;;11.40;96.70;;;;;;5106324;27;19996;-77
2024/03/29 02:49:31;;;;;;;;;;;11.40;96.80;;;;;;5103507;27;20439;-76
2024/03/29 02:51:56;;;;;;;;;;;11.30;97.60;;;;;;5104560;28;19992;-75
2024/03/29 02:54:22;;;;;;;;;;;11.20;98.00;;;;;;5109509;27;20795;-75
2024/03/29 02:56:48;;;;;;;;;;;11.20;98.70;;;;;;5108060;27;20527;-76
2024/03/29 02:59:13;;;;;;;;;;;11.10;99.60;;;;;;5105437;27;20046;-75
2024/03/29 03:01:39;;;;;;;;;;;11.10;99.90;;;;;;5093235;27;19992;-75
2024/03/29 03:04:05;;;;;;;;;;;11.00;99.90;;;;;;5103551;28;19989;-75
2024/03/29 03:06:30;;;;;;;;;;;11.00;99.90;;;;;;5104790;28;20023;-75
2024/03/29 03:11:40;;;;;;;;;;;11.10;99.90;;;;;;5103288;28;19987;-75
2024/03/29 03:14:05;;;;;;;;;;;11.30;99.90;;;;;;5109135;27;19997;-75
2024/03/29 03:16:31;;;;;;;;;;;11.10;99.90;;;;;;5104660;28;19999;-75
2024/03/29 03:18:57;;;;;;;;;;;11.10;99.90;;;;;;5104621;28;20008;-76
2024/03/29 03:21:22;;;;;;;;;;;11.10;99.90;;;;;;5104083;28;20013;-75
2024/03/29 03:23:48;;;;;;;;;;;11.10;99.90;;;;;;5104418;28;20049;-75
2024/03/29 03:26:14;;;;;;;;;;;11.10;99.90;;;;;;5104461;28;20066;-76
2024/03/29 03:28:39;;;;;;;;;;;10.70;99.90;;;;;;5104759;28;20032;-76
2024/03/29 03:31:07;;;;;;;;;;;10.10;99.90;;;;;;5104668;28;20817;-77
2024/03/29 03:33:32;;;;;;;;;;;9.90;99.90;;;;;;5103341;27;20079;-76
2024/03/29 03:35:58;;;;;;;;;;;9.90;99.90;;;;;;5104778;28;20085;-76
2024/03/29 03:38:23;;;;;;;;;;;9.90;99.90;;;;;;5104066;28;20015;-75
2024/03/29 03:40:49;;;;;;;;;;;9.80;99.90;;;;;;5102482;27;20043;-76
2024/03/29 03:43:16;;;;;;;;;;;9.90;99.90;;;;;;5104313;28;19989;-76
2024/03/29 03:45:41;;;;;;;;;;;10.00;99.90;;;;;;5104115;28;20535;-75
2024/03/29 03:48:08;;;;;;;;;;;10.10;99.90;;;;;;5103799;28;20003;-75
2024/03/29 03:50:33;;;;;;;;;;;10.10;99.90;;;;;;5104490;28;20107;-76
2024/03/29 03:53:00;;;;;;;;;;;10.00;99.90;;;;;;5101298;28;19988;-75
2024/03/29 03:55:25;;;;;;;;;;;10.00;99.90;;;;;;5104061;28;20341;-76
2024/03/29 03:57:51;;;;;;;;;;;10.10;99.90;;;;;;5104132;28;20012;-75
2024/03/29 04:00:20;;;;;;;;;;;10.20;99.90;;;;;;5103867;27;20008;-76
2024/03/29 04:02:49;;;;;;;;;;;10.10;99.90;;;;;;5104012;28;20037;-75
2024/03/29 04:05:15;;;;;;;;;;;10.00;99.90;;;;;;5108125;27;20000;-76
2024/03/29 04:07:40;;;;;;;;;;;10.00;99.90;;;;;;5104223;27;20511;-75
2024/03/29 04:10:06;;;;;;;;;;;9.90;99.90;;;;;;5103990;27;20007;-75
2024/03/29 04:12:32;;;;;;;;;;;9.80;99.90;;;;;;5103411;27;20103;-75
2024/03/29 04:14:57;;;;;;;;;;;9.90;99.90;;;;;;5106980;27;19988;-75
2024/03/29 04:17:23;;;;;;;;;;;10.00;99.90;;;;;;5106008;27;20444;-75
2024/03/29 04:19:48;;;;;;;;;;;9.90;99.90;;;;;;5109469;27;20553;-75
2024/03/29 04:22:14;;;;;;;;;;;10.10;99.90;;;;;;5103355;28;20053;-76
2024/03/29 04:24:39;;;;;;;;;;;10.20;99.90;;;;;;5088345;28;19989;-77
2024/03/29 04:27:05;;;;;;;;;;;10.20;99.90;;;;;;5100594;28;19992;-77
2024/03/29 04:29:31;;;;;;;;;;;10.30;99.90;;;;;;5103605;28;20017;-76
2024/03/29 04:31:56;;;;;;;;;;;10.30;99.90;;;;;;5103717;28;20107;-76
2024/03/29 04:34:22;;;;;;;;;;;10.30;99.90;;;;;;5106097;27;19993;-76
2024/03/29 04:36:47;;;;;;;;;;;10.40;99.90;;;;;;5103147;28;19993;-75
2024/03/29 04:39:13;;;;;;;;;;;10.40;99.90;;;;;;5100474;28;20102;-75
2024/03/29 04:41:39;;;;;;;;;;;10.50;99.90;;;;;;5102930;28;20031;-75
2024/03/29 04:44:04;;;;;;;;;;;10.50;99.90;;;;;;5103400;28;19989;-75
2024/03/29 04:46:30;;;;;;;;;;;10.40;99.90;;;;;;5103517;28;20111;-76
2024/03/29 04:48:56;;;;;;;;;;;10.40;99.90;;;;;;5102578;28;19988;-75
2024/03/29 04:51:21;;;;;;;;;;;10.30;99.90;;;;;;5102973;28;20427;-75
2024/03/29 04:53:47;;;;;;;;;;;10.40;99.90;;;;;;5101546;28;20044;-75
2024/03/29 04:56:12;;;;;;;;;;;10.50;99.90;;;;;;5102745;28;20028;-75
2024/03/29 04:58:38;;;;;;;;;;;10.50;99.90;;;;;;5102636;28;20044;-75
2024/03/29 05:01:04;;;;;;;;;;;10.50;99.90;;;;;;5102637;28;19993;-75
2024/03/29 05:03:29;;;;;;;;;;;10.50;99.90;;;;;;5103628;27;20046;-75
2024/03/29 05:05:56;;;;;;;;;;;10.40;99.90;;;;;;5102697;28;20030;-76
2024/03/29 05:08:22;;;;;;;;;;;10.40;99.90;;;;;;5084515;28;20771;-76
2024/03/29 05:10:51;;;;;;;;;;;10.50;99.90;;;;;;5095679;28;19993;-76
2024/03/29 05:13:17;;;;;;;;;;;10.50;99.90;;;;;;5079262;28;20554;-75
2024/03/29 05:15:43;;;;;;;;;;;10.40;99.90;;;;;;5102959;28;20046;-76
2024/03/29 05:18:08;;;;;;;;;;;10.30;99.90;;;;;;5104563;27;20189;-75
2024/03/29 05:20:34;;;;;;;;;;;10.30;99.90;;;;;;5103692;27;19993;-75
2024/03/29 05:22:59;;;;;;;;;;;10.20;99.90;;;;;;5105493;27;19992;-75
2024/03/29 05:25:25;;;;;;;;;;;10.10;99.90;;;;;;5104020;27;20096;-76
2024/03/29 05:27:51;;;;;;;;;;;10.20;99.90;;;;;;5103125;27;20390;-76
2024/03/29 05:30:17;;;;;;;;;;;10.20;99.90;;;;;;5102912;27;20000;-78
2024/03/29 05:32:43;;;;;;;;;;;10.30;99.90;;;;;;5105475;27;20069;-75
2024/03/29 05:35:09;;;;;;;;;;;10.30;99.90;;;;;;5104169;27;20087;-75
2024/03/29 05:37:35;;;;;;;;;;;10.40;99.90;;;;;;5101750;28;20100;-74
2024/03/29 05:40:03;;;;;;;;;;;10.30;99.90;;;;;;5078083;28;19993;-75
2024/03/29 05:42:30;;;;;;;;;;;10.20;99.90;;;;;;5095494;28;20764;-75
2024/03/29 05:44:55;;;;;;;;;;;10.20;99.90;;;;;;5101795;28;20020;-75
2024/03/29 05:47:21;;;;;;;;;;;10.20;99.90;;;;;;5099291;28;20445;-75
2024/03/29 05:49:47;;;;;;;;;;;10.10;99.90;;;;;;5101756;28;20126;-75
2024/03/29 05:52:15;;;;;;;;;;;10.20;99.90;;;;;;5100509;28;20038;-74
2024/03/29 05:54:43;;;;;;;;;;;10.20;99.90;;;;;;5101483;28;20101;-74
2024/03/29 05:57:09;;;;;;;;;;;10.30;99.90;;;;;;5097330;28;19992;-74
2024/03/29 05:59:35;;;;;;;;;;;10.30;99.90;;;;;;5092959;27;20009;-74
2024/03/29 06:02:01;;;;;;;;;;;10.30;99.90;;;;;;5101404;28;20015;-74
2024/03/29 06:04:32;;;;;;;;;;;10.40;99.90;;;;;;5096524;28;20654;-74
2024/03/29 06:06:58;;;;;;;;;;;10.40;99.90;;;;;;5098518;28;20017;-74
2024/03/29 06:09:24;;;;;;;;;;;10.40;99.90;;;;;;5095439;28;20009;-74
2024/03/29 06:11:50;;;;;;;;;;;10.40;99.90;;;;;;5100926;28;20124;-75
2024/03/29 06:19:43;;;;;;;;;;;10.50;99.90;;;;;;5097271;28;20003;-74
2024/03/29 06:22:09;;;;;;;;;;;10.40;99.90;;;;;;5101647;28;20000;-74
2024/03/29 06:24:35;;;;;;;;;;;10.40;99.90;;;;;;5105420;28;20091;-75
2024/03/29 06:27:00;;;;;;;;;;;10.40;99.90;;;;;;5099532;28;20448;-73
2024/03/29 06:29:26;;;;;;;;;;;10.50;99.90;;;;;;5104462;28;20519;-75
2024/03/29 06:31:51;;;;;;;;;;;10.60;99.90;;;;;;5100604;28;19995;-75
2024/03/29 06:34:17;;;;;;;;;;;10.70;99.90;;;;;;5103795;28;20004;-75
2024/03/29 06:36:43;;;;;;;;;;;10.70;99.90;;;;;;5104499;28;20669;-75
2024/03/29 06:39:08;;;;;;;;;;;10.80;99.90;;;;;;5097049;28;20012;-75
2024/03/29 06:41:34;;;;;;;;;;;10.80;99.90;;;;;;5096834;28;19997;-76
2024/03/29 06:43:59;;;;;;;;;;;10.80;99.90;;;;;;5100195;28;20781;-74
2024/03/29 06:46:25;;;;;;;;;;;10.70;99.90;;;;;;5099434;28;19989;-74
2024/03/29 06:48:51;;;;;;;;;;;10.40;99.90;;;;;;5099272;28;20005;-74
2024/03/29 06:51:16;;;;;;;;;;;10.30;99.90;;;;;;5097410;28;20106;-73
2024/03/29 06:53:42;;;;;;;;;;;10.20;99.90;;;;;;5103125;28;19992;-74
2024/03/29 06:56:08;;;;;;;;;;;10.10;99.90;;;;;;5100536;27;20024;-74
2024/03/29 06:58:33;;;;;;;;;;;10.10;99.90;;;;;;5105058;27;20016;-73
2024/03/29 07:00:59;;;;;;;;;;;10.00;99.90;;;;;;5104283;28;20683;-73
2024/03/29 07:03:24;;;;;;;;;;;10.10;99.90;;;;;;5103167;27;19997;-74
2024/03/29 07:05:50;;;;;;;;;;;10.20;99.90;;;;;;5105801;27;20012;-73
2024/03/29 07:08:16;;;;;;;;;;;10.40;99.90;;;;;;5101415;28;19993;-74
2024/03/29 07:10:41;;;;;;;;;;;10.70;99.90;;;;;;5093997;28;20333;-74
2024/03/29 07:13:07;;;;;;;;;;;10.90;99.90;;;;;;5109302;27;19997;-74
2024/03/29 07:15:33;;;;;;;;;;;11.10;99.90;;;;;;5104416;27;20001;-74
2024/03/29 07:17:59;;;;;;;;;;;11.10;99.90;;;;;;5105027;28;20008;-74
2024/03/29 07:20:25;;;;;;;;;;;11.20;99.90;;;;;;5106771;27;19997;-74
2024/03/29 07:22:51;;;;;;;;;;;11.30;99.90;;;;;;5108448;27;20000;-74
2024/03/29 07:25:16;;;;;;;;;;;11.40;99.90;;;;;;5103918;28;20502;-75
2024/03/29 07:27:42;;;;;;;;;;;11.50;99.90;;;;;;5104321;28;20081;-75
2024/03/29 07:30:08;;;;;;;;;;;11.50;99.90;;;;;;5104909;28;20031;-74
2024/03/29 07:32:33;;;;;;;;;;;11.40;99.90;;;;;;5104548;28;19989;-75
2024/03/29 07:34:59;;;;;;;;;;;11.40;99.90;;;;;;5105223;27;19988;-74
2024/03/29 07:37:25;;;;;;;;;;;11.40;99.90;;;;;;5103794;28;20087;-75
2024/03/29 07:39:51;;;;;;;;;;;11.40;99.90;;;;;;5102205;28;19988;-74
2024/03/29 07:42:16;;;;;;;;;;;11.40;99.90;;;;;;5103789;28;20079;-74
2024/03/29 07:44:42;;;;;;;;;;;11.20;99.90;;;;;;5094926;28;20095;-74
2024/03/29 07:47:08;;;;;;;;;;;11.20;99.90;;;;;;5104353;28;19992;-74
2024/03/29 07:49:33;;;;;;;;;;;11.30;99.90;;;;;;5105022;28;19988;-75
2024/03/29 07:52:02;;;;;;;;;;;11.40;99.90;;;;;;5094814;28;19984;-74
2024/03/29 07:54:27;;;;;;;;;;;11.40;99.90;;;;;;5094872;28;19993;-74
2024/03/29 07:56:53;;;;;;;;;;;11.30;99.90;;;;;;5106544;27;19996;-74
2024/03/29 07:59:19;;;;;;;;;;;11.30;99.90;;;;;;5104598;28;20062;-75
2024/03/29 08:01:45;;;;;;;;;;;11.30;99.90;;;;;;5103159;28;19993;-75
2024/03/29 08:04:10;;;;;;;;;;;11.30;99.90;;;;;;5081027;28;19992;-74
2024/03/29 08:06:36;;;;;;;;;;;11.30;99.90;;;;;;5100204;28;20059;-76
2024/03/29 08:09:02;;;;;;;;;;;11.30;99.90;;;;;;5104012;28;20038;-75
2024/03/29 08:11:27;;;;;;;;;;;11.40;99.90;;;;;;5085547;28;20032;-75
2024/03/29 08:13:53;;;;;;;;;;;11.40;99.90;;;;;;5104867;28;20010;-74
2024/03/29 08:16:19;;;;;;;;;;;11.40;99.90;;;;;;5108417;27;20165;-75
2024/03/29 08:18:47;;;;;;;;;;;11.50;99.90;;;;;;5104422;28;20009;-74
2024/03/29 08:21:13;;;;;;;;;;;11.50;99.90;;;;;;5104271;28;19995;-75
2024/03/29 08:23:39;;;;;;;;;;;11.60;99.90;;;;;;5103313;28;21025;-74
2024/03/29 08:26:05;;;;;;;;;;;11.50;99.90;;;;;;5104195;28;20065;-75
2024/03/29 08:28:31;;;;;;;;;;;11.50;99.90;;;;;;5103881;28;20043;-74
2024/03/29 08:31:04;;;;;;;;;;;11.50;99.90;;;;;;5100876;28;19995;-74
2024/03/29 08:33:31;;;;;;;;;;;11.40;99.90;;;;;;5105621;27;20087;-74
2024/03/29 08:35:57;;;;;;;;;;;11.30;99.90;;;;;;5103107;28;20007;-75
2024/03/29 08:38:22;;;;;;;;;;;11.30;99.90;;;;;;5103436;28;20757;-74
2024/03/29 08:40:49;;;;;;;;;;;11.40;99.90;;;;;;5099202;28;20053;-74
2024/03/29 08:43:16;;;;;;;;;;;11.50;99.90;;;;;;5103355;28;19988;-75
2024/03/29 08:45:41;;;;;;;;;;;11.70;99.90;;;;;;5103037;28;20038;-75
2024/03/29 08:48:10;;;;;;;;;;;11.60;99.90;;;;;;5094684;28;19992;-75
2024/03/29 08:50:36;;;;;;;;;;;11.70;99.90;;;;;;5099216;28;20032;-74
2024/03/29 08:53:04;;;;;;;;;;;11.70;99.90;;;;;;5102969;28;20434;-74
2024/03/29 08:55:31;;;;;;;;;;;11.80;99.90;;;;;;5103549;27;20371;-74
2024/03/29 08:57:58;;;;;;;;;;;12.00;99.90;;;;;;5095323;28;20585;-75
2024/03/29 09:00:24;;;;;;;;;;;12.00;99.90;;;;;;5101641;28;20749;-74
2024/03/29 09:02:49;;;;;;;;;;;12.20;99.90;;;;;;5100499;27;20025;-75
2024/03/29 09:05:15;;;;;;;;;;;12.40;99.90;;;;;;5100742;28;19993;-74
2024/03/29 09:07:41;;;;;;;;;;;12.60;99.90;;;;;;5098967;28;20025;-74
2024/03/29 09:10:07;;;;;;;;;;;12.70;99.90;;;;;;5103093;28;20067;-75
2024/03/29 09:12:32;;;;;;;;;;;13.00;99.90;;;;;;5102975;28;20455;-75
2024/03/29 09:14:58;;;;;;;;;;;13.10;99.90;;;;;;5101595;28;19995;-75
2024/03/29 09:17:24;;;;;;;;;;;12.80;99.90;;;;;;5103201;28;20780;-75
2024/03/29 09:19:51;;;;;;;;;;;12.60;99.90;;;;;;5102592;28;20013;-74
2024/03/29 09:22:17;;;;;;;;;;;12.60;99.90;;;;;;5102840;28;20088;-75
2024/03/29 09:24:43;;;;;;;;;;;12.70;99.90;;;;;;5103569;27;19988;-74
2024/03/29 09:27:08;;;;;;;;;;;12.60;99.90;;;;;;5102629;27;20084;-75
2024/03/29 09:29:34;;;;;;;;;;;12.70;99.90;;;;;;5103496;28;20039;-75
2024/03/29 09:32:01;;;;;;;;;;;13.00;99.90;;;;;;5103145;28;20035;-75
2024/03/29 09:34:27;;;;;;;;;;;13.00;99.90;;;;;;5104889;27;19992;-74
2024/03/29 09:36:53;;;;;;;;;;;13.10;99.90;;;;;;5102441;28;19988;-75
2024/03/29 09:39:18;;;;;;;;;;;12.90;99.90;;;;;;5102793;28;20000;-74
2024/03/29 09:41:45;;;;;;;;;;;12.70;99.90;;;;;;5103146;28;19992;-75
2024/03/29 09:44:11;;;;;;;;;;;12.70;99.90;;;;;;5102455;28;19996;-74
2024/03/29 09:46:39;;;;;;;;;;;12.70;99.90;;;;;;5102775;28;19993;-75
2024/03/29 09:49:08;;;;;;;;;;;12.80;99.90;;;;;;5102654;28;21222;-75
2024/03/29 09:51:34;;;;;;;;;;;13.10;99.90;;;;;;5099816;28;19989;-74
2024/03/29 09:54:00;;;;;;;;;;;13.40;99.90;;;;;;5102096;28;19989;-74
2024/03/29 09:56:26;;;;;;;;;;;13.90;99.90;;;;;;5102184;28;19995;-75
2024/03/29 09:58:52;;;;;;;;;;;14.30;99.90;;;;;;5104954;27;20004;-75
2024/03/29 10:01:18;;;;;;;;;;;15.40;99.90;;;;;;5100631;28;20004;-75
2024/03/29 10:03:48;;;;;;;;;;;16.00;98.10;;;;;;5097598;28;20028;-75
2024/03/29 10:06:14;;;;;;;;;;;15.20;98.80;;;;;;5098109;28;20021;-74
2024/03/29 10:08:40;;;;;;;;;;;14.40;99.90;;;;;;5102060;28;20397;-75
2024/03/29 10:11:06;;;;;;;;;;;13.90;99.90;;;;;;5102360;28;19989;-74
2024/03/29 10:13:32;;;;;;;;;;;13.80;99.90;;;;;;5102212;28;19989;-74
2024/03/29 10:15:57;;;;;;;;;;;13.80;99.90;;;;;;5102118;28;20046;-75
2024/03/29 10:18:23;;;;;;;;;;;13.60;99.90;;;;;;5101996;28;20009;-74
2024/03/29 10:21:04;;;;;;;;;;;13.30;99.90;;;;;;5097660;28;20049;-75
2024/03/29 10:23:30;;;;;;;;;;;13.20;99.90;;;;;;5102006;28;20284;-75
2024/03/29 10:25:56;;;;;;;;;;;13.20;99.90;;;;;;5102276;28;20359;-74
2024/03/29 10:28:22;;;;;;;;;;;13.40;99.90;;;;;;5100403;28;19989;-75
2024/03/29 10:30:48;;;;;;;;;;;13.70;99.90;;;;;;5104165;28;19993;-74
2024/03/29 10:33:14;;;;;;;;;;;13.40;99.90;;;;;;5107911;27;19996;-74
2024/03/29 10:35:43;;;;;;;;;;;13.20;99.90;;;;;;5087771;28;20003;-75
2024/03/29 10:38:10;;;;;;;;;;;13.20;99.90;;;;;;5105829;28;20507;-74
2024/03/29 10:40:37;;;;;;;;;;;13.40;99.90;;;;;;5110428;27;20025;-76
2024/03/29 10:43:06;;;;;;;;;;;13.80;99.90;;;;;;5105864;28;19985;-74
2024/03/29 10:45:32;;;;;;;;;;;13.80;99.90;;;;;;5105945;28;19989;-74
2024/03/29 10:47:58;;;;;;;;;;;13.70;99.90;;;;;;5105992;28;19999;-75
2024/03/29 10:50:25;;;;;;;;;;;13.60;99.90;;;;;;5104418;28;20480;-75
2024/03/29 10:52:51;;;;;;;;;;;13.60;99.90;;;;;;5103917;28;20610;-74
2024/03/29 10:55:16;;;;;;;;;;;13.70;99.90;;;;;;5105169;28;20119;-74
2024/03/29 10:57:45;;;;;;;;;;;13.70;99.90;;;;;;5105722;28;19989;-74
2024/03/29 11:00:18;;;;;;;;;;;13.80;99.90;;;;;;5104462;28;19993;-74
2024/03/29 11:03:03;;;;;;;;;;;13.70;99.90;;;;;;5094093;28;20039;-74
2024/03/29 11:05:30;;;;;;;;;;;13.60;99.90;;;;;;5103422;28;19993;-74
2024/03/29 11:07:56;;;;;;;;;;;13.80;99.90;;;;;;5100698;28;20079;-74
2024/03/29 11:10:45;;;;;;;;;;;13.80;99.90;;;;;;5105579;28;19993;-74
2024/03/29 11:13:29;;;;;;;;;;;13.90;99.90;;;;;;5105700;28;19985;-74
2024/03/29 11:15:55;;;;;;;;;;;13.80;99.90;;;;;;5101813;27;19988;-74
2024/03/29 11:18:21;;;;;;;;;;;13.80;99.90;;;;;;5105065;28;20510;-74
2024/03/29 11:20:51;;;;;;;;;;;13.90;99.90;;;;;;5105345;28;20079;-75
2024/03/29 11:23:17;;;;;;;;;;;13.90;99.90;;;;;;5103804;28;19988;-74
2024/03/29 11:25:44;;;;;;;;;;;13.70;99.90;;;;;;5104404;28;19988;-74
2024/03/29 11:28:15;;;;;;;;;;;13.70;99.90;;;;;;5105339;28;19988;-75
2024/03/29 11:30:42;;;;;;;;;;;13.50;99.90;;;;;;5105355;28;20497;-74
2024/03/29 11:33:08;;;;;;;;;;;13.50;99.90;;;;;;5105312;28;20698;-74
2024/03/29 11:35:38;;;;;;;;;;;13.40;99.90;;;;;;5105605;28;19989;-74
2024/03/29 11:38:03;;;;;;;;;;;13.40;99.90;;;;;;5104469;28;20107;-75
2024/03/29 11:40:29;;;;;;;;;;;13.20;99.90;;;;;;5110231;27;20522;-75
2024/03/29 11:42:55;;;;;;;;;;;13.20;99.90;;;;;;5100726;28;19984;-74
2024/03/29 11:45:22;;;;;;;;;;;13.10;99.90;;;;;;5105112;28;20371;-74
2024/03/29 11:47:47;;;;;;;;;;;13.10;99.90;;;;;;5104621;28;20194;-75
2024/03/29 11:50:13;;;;;;;;;;;13.00;99.90;;;;;;5104718;28;19995;-74
2024/03/29 11:52:39;;;;;;;;;;;13.10;99.90;;;;;;5084416;28;20812;-74
2024/03/29 11:55:05;;;;;;;;;;;13.40;99.90;;;;;;5104973;28;20038;-75
2024/03/29 11:57:31;;;;;;;;;;;13.60;99.90;;;;;;5104771;28;20038;-74
2024/03/29 11:59:56;;;;;;;;;;;13.80;99.90;;;;;;5104222;28;20027;-75
2024/03/29 12:02:23;;;;;;;;;;;13.90;99.90;;;;;;5098955;28;19992;-75
2024/03/29 12:04:48;;;;;;;;;;;14.20;99.90;;;;;;5101048;28;19988;-76
2024/03/29 12:07:14;;;;;;;;;;;14.20;99.90;;;;;;5099822;28;20343;-75
2024/03/29 12:09:40;;;;;;;;;;;13.90;99.90;;;;;;5104208;28;19988;-75
2024/03/29 12:12:09;;;;;;;;;;;13.90;99.90;;;;;;5101940;28;20447;-74
2024/03/29 12:14:37;;;;;;;;;;;13.90;99.90;;;;;;5103998;28;19989;-75
2024/03/29 12:17:11;;;;;;;;;;;14.00;99.90;;;;;;5103406;28;20793;-74
2024/03/29 12:19:39;;;;;;;;;;;13.90;99.90;;;;;;5103967;28;20067;-75
2024/03/29 12:22:05;;;;;;;;;;;14.00;99.90;;;;;;5103695;28;20487;-75
2024/03/29 12:24:30;;;;;;;;;;;14.10;99.90;;;;;;5103591;28;20037;-75
2024/03/29 12:26:57;;;;;;;;;;;13.90;99.90;;;;;;5103580;28;20633;-74
2024/03/29 12:29:23;;;;;;;;;;;13.70;99.90;;;;;;5104663;28;19988;-75
2024/03/29 12:32:01;;;;;;;;;;;13.60;99.90;;;;;;5103884;28;19993;-75
2024/03/29 12:34:26;;;;;;;;;;;13.60;99.90;;;;;;5105413;27;19991;-75
2024/03/29 12:36:52;;;;;;;;;;;13.70;99.90;;;;;;5103909;28;19988;-75
2024/03/29 12:39:17;;;;;;;;;;;13.70;99.90;;;;;;5106688;27;20114;-74
2024/03/29 12:41:44;;;;;;;;;;;13.30;99.90;;;;;;5104603;27;20595;-74
2024/03/29 12:44:10;;;;;;;;;;;13.30;99.90;;;;;;5103248;28;19989;-75
2024/03/29 12:46:36;;;;;;;;;;;13.60;99.90;;;;;;5103465;28;20045;-75
2024/03/29 12:49:02;;;;;;;;;;;13.60;99.90;;;;;;5102872;28;20561;-75
2024/03/29 12:51:34;;;;;;;;;;;13.70;99.90;;;;;;5101812;28;20600;-75
2024/03/29 12:54:03;;;;;;;;;;;13.50;99.90;;;;;;5083762;28;20065;-74
2024/03/29 12:56:30;;;;;;;;;;;13.50;99.90;;;;;;5103087;28;20745;-75
2024/03/29 12:58:55;;;;;;;;;;;13.60;99.90;;;;;;5103118;28;20005;-74
2024/03/29 13:01:21;;;;;;;;;;;13.70;99.90;;;;;;5101900;28;19999;-74
2024/03/29 13:03:46;;;;;;;;;;;13.60;99.90;;;;;;5098528;28;20039;-75
2024/03/29 13:06:12;;;;;;;;;;;13.60;99.90;;;;;;5102961;28;20064;-74
2024/03/29 13:08:38;;;;;;;;;;;13.50;99.90;;;;;;5102916;28;20001;-74
2024/03/29 13:11:03;;;;;;;;;;;13.50;99.90;;;;;;5103201;28;19989;-74
2024/03/29 13:13:29;;;;;;;;;;;13.50;99.90;;;;;;5104702;27;20366;-75
2024/03/29 13:15:54;;;;;;;;;;;13.50;99.90;;;;;;5102626;28;19988;-75
2024/03/29 13:18:21;;;;;;;;;;;13.40;99.90;;;;;;5102838;28;20091;-74
2024/03/29 13:20:46;;;;;;;;;;;13.20;99.90;;;;;;5103128;28;20032;-73
2024/03/29 13:23:12;;;;;;;;;;;13.20;99.90;;;;;;5101454;28;20080;-75
2024/03/29 13:25:39;;;;;;;;;;;13.30;99.90;;;;;;5102382;28;20110;-75
2024/03/29 13:28:05;;;;;;;;;;;13.30;99.90;;;;;;5102694;28;19996;-74
2024/03/29 13:30:31;;;;;;;;;;;13.20;99.90;;;;;;5105342;27;20420;-74
2024/03/29 13:32:56;;;;;;;;;;;13.10;99.90;;;;;;5103449;28;19993;-74
2024/03/29 13:35:22;;;;;;;;;;;13.20;99.90;;;;;;5102913;28;20797;-75
2024/03/29 13:37:49;;;;;;;;;;;13.10;99.90;;;;;;5083664;28;19992;-74
2024/03/29 13:40:18;;;;;;;;;;;12.90;99.90;;;;;;5106209;27;19996;-74
2024/03/29 13:42:44;;;;;;;;;;;13.00;99.90;;;;;;5101596;28;19995;-74
2024/03/29 13:45:10;;;;;;;;;;;13.00;99.90;;;;;;5103764;27;20649;-74
2024/03/29 13:47:42;;;;;;;;;;;13.10;99.90;;;;;;5102700;28;19989;-75
2024/03/29 13:50:08;;;;;;;;;;;13.00;99.90;;;;;;5101670;28;20024;-74
2024/03/29 13:52:34;;;;;;;;;;;13.00;99.90;;;;;;5100190;28;20088;-74
2024/03/29 13:55:00;;;;;;;;;;;13.00;99.90;;;;;;5102376;28;19988;-74
2024/03/29 13:57:26;;;;;;;;;;;13.20;99.90;;;;;;5099615;28;20526;-75
2024/03/29 13:59:52;;;;;;;;;;;13.20;99.90;;;;;;5102133;28;20005;-74
2024/03/29 14:02:18;;;;;;;;;;;13.30;99.90;;;;;;5100796;28;20087;-74
2024/03/29 14:04:44;;;;;;;;;;;13.40;99.90;;;;;;5098123;28;19988;-75
2024/03/29 14:07:11;;;;;;;;;;;13.50;99.90;;;;;;5097693;28;20119;-75
2024/03/29 14:09:37;;;;;;;;;;;13.40;99.90;;;;;;5102193;28;19996;-74
2024/03/29 14:12:03;;;;;;;;;;;13.40;99.90;;;;;;5100331;28;19989;-74
2024/03/29 14:14:29;;;;;;;;;;;13.40;99.90;;;;;;5099021;28;20414;-74
2024/03/29 14:16:55;;;;;;;;;;;13.40;99.90;;;;;;5102585;28;20083;-75
2024/03/29 14:19:20;;;;;;;;;;;13.20;99.90;;;;;;5102136;28;20057;-74